EZY56LC EGJJ-EGHI
Flight info
| Callsign | EZY56LC |
|---|---|
| Flight time | 0h 28m |
| Altitude | 13000 |
| Route | ORTAC Q41 THRED |
| Aircraft | A319/M-SDE3FGHIRWY/LB1 |
Departure
| Time | 2026-05-05 20:45 |
|---|---|
| Airport | Jersey Airport (EGJJ) |
Arrival
| Time | 2026-05-05 21:13 |
|---|---|
| Airport | Southampton Airport (EGHI) |
| Time | Latitude | Longitude | Altitude | Speed | Heading |
|---|---|---|---|---|---|
| 2026-05-05 20:28 | 49.20486 | -2.19678 | 280 ft | 0 kts | 2° |
| 2026-05-05 20:37 | 49.20474 | -2.19678 | 280 ft | 3 kts | 2° |
| 2026-05-05 20:37 | 49.20456 | -2.19679 | 280 ft | 3 kts | 2° |
| 2026-05-05 20:37 | 49.20438 | -2.19675 | 280 ft | 2 kts | 298° |
| 2026-05-05 20:38 | 49.20434 | -2.19660 | 289 ft | 0 kts | 283° |
| 2026-05-05 20:40 | 49.20438 | -2.19688 | 282 ft | 5 kts | 279° |
| 2026-05-05 20:40 | 49.20437 | -2.19774 | 280 ft | 11 kts | 265° |
| 2026-05-05 20:40 | 49.20441 | -2.19893 | 280 ft | 12 kts | 298° |
| 2026-05-05 20:41 | 49.20519 | -2.19930 | 280 ft | 13 kts | 356° |
| 2026-05-05 20:41 | 49.20600 | -2.19882 | 280 ft | 14 kts | 67° |
| 2026-05-05 20:41 | 49.20615 | -2.19728 | 280 ft | 15 kts | 79° |
| 2026-05-05 20:41 | 49.20683 | -2.19604 | 280 ft | 16 kts | 56° |
| 2026-05-05 20:42 | 49.20707 | -2.19437 | 286 ft | 17 kts | 82° |
| 2026-05-05 20:42 | 49.20688 | -2.19258 | 285 ft | 18 kts | 104° |
| 2026-05-05 20:42 | 49.20682 | -2.19070 | 283 ft | 17 kts | 83° |
| 2026-05-05 20:42 | 49.20699 | -2.18881 | 283 ft | 19 kts | 82° |
| 2026-05-05 20:43 | 49.20719 | -2.18678 | 282 ft | 20 kts | 82° |
| 2026-05-05 20:43 | 49.20734 | -2.18489 | 282 ft | 14 kts | 78° |
| 2026-05-05 20:43 | 49.20766 | -2.18422 | 282 ft | 2 kts | 42° |
| 2026-05-05 20:43 | 49.20790 | -2.18394 | 280 ft | 9 kts | 34° |
| 2026-05-05 20:44 | 49.20862 | -2.18382 | 279 ft | 10 kts | 348° |
| 2026-05-05 20:44 | 49.20889 | -2.18459 | 279 ft | 0 kts | 266° |
| 2026-05-05 20:44 | 49.20889 | -2.18461 | 279 ft | 0 kts | 265° |
| 2026-05-05 20:44 | 49.20868 | -2.18746 | 281 ft | 71 kts | 263° |
| 2026-05-05 20:45 | 49.20645 | -2.21533 | 910 ft | 153 kts | 264° |
| 2026-05-05 20:45 | 49.20505 | -2.23143 | 1716 ft | 156 kts | 269° |
| 2026-05-05 20:45 | 49.20360 | -2.24924 | 2211 ft | 180 kts | 268° |
| 2026-05-05 20:46 | 49.20198 | -2.26948 | 2793 ft | 204 kts | 267° |
| 2026-05-05 20:46 | 49.20130 | -2.29341 | 3008 ft | 247 kts | 284° |
| 2026-05-05 20:46 | 49.20912 | -2.31704 | 3830 ft | 254 kts | 317° |
| 2026-05-05 20:46 | 49.22411 | -2.33080 | 4934 ft | 255 kts | 345° |
| 2026-05-05 20:47 | 49.24140 | -2.33808 | 5651 ft | 259 kts | 348° |
| 2026-05-05 20:47 | 49.25895 | -2.34490 | 6036 ft | 263 kts | 348° |
| 2026-05-05 20:47 | 49.27666 | -2.35158 | 7167 ft | 263 kts | 348° |
| 2026-05-05 20:47 | 49.29462 | -2.35842 | 8256 ft | 268 kts | 347° |
| 2026-05-05 20:48 | 49.31288 | -2.36489 | 9328 ft | 272 kts | 353° |
| 2026-05-05 20:48 | 49.33184 | -2.36323 | 10277 ft | 279 kts | 13° |
| 2026-05-05 20:48 | 49.35144 | -2.35530 | 10713 ft | 304 kts | 15° |
| 2026-05-05 20:48 | 49.37237 | -2.34620 | 11345 ft | 318 kts | 16° |
| 2026-05-05 20:49 | 49.39388 | -2.33669 | 12207 ft | 324 kts | 16° |
| 2026-05-05 20:49 | 49.41550 | -2.32714 | 12757 ft | 329 kts | 16° |
| 2026-05-05 20:49 | 49.43760 | -2.31744 | 12929 ft | 330 kts | 16° |
| 2026-05-05 20:49 | 49.45969 | -2.30784 | 12965 ft | 330 kts | 15° |
| 2026-05-05 20:50 | 49.48182 | -2.29829 | 12967 ft | 330 kts | 15° |
| 2026-05-05 20:50 | 49.50390 | -2.28876 | 12952 ft | 330 kts | 15° |
| 2026-05-05 20:50 | 49.52598 | -2.27922 | 12955 ft | 328 kts | 15° |
| 2026-05-05 20:50 | 49.54798 | -2.26967 | 12958 ft | 329 kts | 15° |
| 2026-05-05 20:51 | 49.57003 | -2.26006 | 12957 ft | 328 kts | 15° |
| 2026-05-05 20:51 | 49.59202 | -2.25050 | 12953 ft | 328 kts | 15° |
| 2026-05-05 20:51 | 49.61373 | -2.24110 | 12960 ft | 329 kts | 16° |
| 2026-05-05 20:51 | 49.63584 | -2.23155 | 12955 ft | 330 kts | 16° |
| 2026-05-05 20:52 | 49.65797 | -2.22196 | 12955 ft | 330 kts | 16° |
| 2026-05-05 20:52 | 49.68009 | -2.21233 | 12954 ft | 330 kts | 16° |
| 2026-05-05 20:52 | 49.70220 | -2.20267 | 12958 ft | 330 kts | 16° |
| 2026-05-05 20:52 | 49.72367 | -2.19002 | 12961 ft | 330 kts | 23° |
| 2026-05-05 20:53 | 49.74474 | -2.17589 | 12954 ft | 330 kts | 23° |
| 2026-05-05 20:53 | 49.76582 | -2.16176 | 12955 ft | 330 kts | 23° |
| 2026-05-05 20:53 | 49.78694 | -2.14764 | 12955 ft | 330 kts | 23° |
| 2026-05-05 20:53 | 49.80803 | -2.13357 | 12955 ft | 330 kts | 23° |
| 2026-05-05 20:54 | 49.82920 | -2.11943 | 12961 ft | 330 kts | 23° |
| 2026-05-05 20:54 | 49.85028 | -2.10533 | 12958 ft | 330 kts | 23° |
| 2026-05-05 20:54 | 49.87151 | -2.09115 | 12960 ft | 339 kts | 23° |
| 2026-05-05 20:54 | 49.89351 | -2.07643 | 12958 ft | 348 kts | 23° |
| 2026-05-05 20:55 | 49.91635 | -2.06109 | 12683 ft | 368 kts | 23° |
| 2026-05-05 20:55 | 49.94010 | -2.04510 | 12421 ft | 375 kts | 23° |
| 2026-05-05 20:55 | 49.96372 | -2.02914 | 12163 ft | 375 kts | 23° |
| 2026-05-05 20:55 | 49.98796 | -2.01269 | 11903 ft | 375 kts | 23° |
| 2026-05-05 20:56 | 50.01185 | -1.99653 | 11651 ft | 374 kts | 23° |
| 2026-05-05 20:56 | 50.03534 | -1.98065 | 11395 ft | 373 kts | 23° |
| 2026-05-05 20:56 | 50.05910 | -1.96455 | 11147 ft | 371 kts | 23° |
| 2026-05-05 20:56 | 50.08270 | -1.94853 | 10903 ft | 370 kts | 23° |
| 2026-05-05 20:57 | 50.10629 | -1.93251 | 10660 ft | 369 kts | 23° |
| 2026-05-05 20:57 | 50.12968 | -1.91664 | 10406 ft | 359 kts | 23° |
| 2026-05-05 20:57 | 50.15205 | -1.90148 | 10184 ft | 342 kts | 22° |
| 2026-05-05 20:57 | 50.17335 | -1.88700 | 9965 ft | 326 kts | 22° |
| 2026-05-05 20:58 | 50.19370 | -1.87312 | 9739 ft | 313 kts | 23° |
| 2026-05-05 20:58 | 50.21331 | -1.85973 | 9498 ft | 302 kts | 23° |
| 2026-05-05 20:58 | 50.23217 | -1.84683 | 9260 ft | 291 kts | 23° |
| 2026-05-05 20:58 | 50.25044 | -1.83430 | 9024 ft | 283 kts | 23° |
| 2026-05-05 20:59 | 50.26795 | -1.82232 | 8800 ft | 274 kts | 23° |
| 2026-05-05 20:59 | 50.28527 | -1.81052 | 8668 ft | 262 kts | 23° |
| 2026-05-05 20:59 | 50.30140 | -1.79952 | 8536 ft | 250 kts | 22° |
| 2026-05-05 20:59 | 50.31701 | -1.78888 | 8407 ft | 239 kts | 23° |
| 2026-05-05 21:00 | 50.33196 | -1.77863 | 8279 ft | 231 kts | 23° |
| 2026-05-05 21:00 | 50.34650 | -1.76865 | 8154 ft | 227 kts | 23° |
| 2026-05-05 21:00 | 50.36100 | -1.75873 | 8025 ft | 227 kts | 23° |
| 2026-05-05 21:00 | 50.37535 | -1.74888 | 7894 ft | 224 kts | 23° |
| 2026-05-05 21:01 | 50.38973 | -1.73903 | 7764 ft | 225 kts | 23° |
| 2026-05-05 21:01 | 50.40407 | -1.72918 | 7640 ft | 225 kts | 23° |
| 2026-05-05 21:01 | 50.41839 | -1.71934 | 7514 ft | 224 kts | 23° |
| 2026-05-05 21:01 | 50.43270 | -1.70947 | 7318 ft | 224 kts | 23° |
| 2026-05-05 21:02 | 50.44689 | -1.69969 | 7264 ft | 223 kts | 23° |
| 2026-05-05 21:02 | 50.46113 | -1.68989 | 7202 ft | 223 kts | 23° |
| 2026-05-05 21:02 | 50.47515 | -1.68026 | 7121 ft | 223 kts | 23° |
| 2026-05-05 21:02 | 50.48933 | -1.67048 | 7026 ft | 223 kts | 23° |
| 2026-05-05 21:03 | 50.50354 | -1.66067 | 6949 ft | 222 kts | 23° |
| 2026-05-05 21:03 | 50.51774 | -1.65085 | 6962 ft | 223 kts | 24° |
| 2026-05-05 21:03 | 50.53194 | -1.64102 | 6964 ft | 223 kts | 24° |
| 2026-05-05 21:03 | 50.54616 | -1.63118 | 6964 ft | 223 kts | 24° |
| 2026-05-05 21:04 | 50.56034 | -1.62137 | 6965 ft | 223 kts | 23° |
| 2026-05-05 21:04 | 50.57450 | -1.61155 | 6966 ft | 222 kts | 24° |
| 2026-05-05 21:04 | 50.58868 | -1.60170 | 6963 ft | 223 kts | 24° |
| 2026-05-05 21:04 | 50.60285 | -1.59184 | 6964 ft | 223 kts | 24° |
| 2026-05-05 21:05 | 50.61703 | -1.58198 | 6964 ft | 222 kts | 24° |
| 2026-05-05 21:05 | 50.63121 | -1.57212 | 6970 ft | 223 kts | 24° |
| 2026-05-05 21:05 | 50.64539 | -1.56227 | 6967 ft | 223 kts | 24° |
| 2026-05-05 21:05 | 50.65956 | -1.55236 | 6932 ft | 221 kts | 24° |
| 2026-05-05 21:06 | 50.67368 | -1.54267 | 6603 ft | 222 kts | 23° |
| 2026-05-05 21:06 | 50.68805 | -1.53357 | 6272 ft | 222 kts | 22° |
| 2026-05-05 21:06 | 50.70261 | -1.52463 | 5825 ft | 227 kts | 22° |
| 2026-05-05 21:06 | 50.71722 | -1.51568 | 5416 ft | 229 kts | 22° |
| 2026-05-05 21:07 | 50.73162 | -1.50679 | 4979 ft | 215 kts | 22° |
| 2026-05-05 21:07 | 50.74513 | -1.49841 | 4582 ft | 202 kts | 22° |
| 2026-05-05 21:07 | 50.75770 | -1.49060 | 4193 ft | 186 kts | 22° |
| 2026-05-05 21:07 | 50.76935 | -1.48335 | 3829 ft | 174 kts | 22° |
| 2026-05-05 21:08 | 50.78028 | -1.47655 | 3502 ft | 163 kts | 22° |
| 2026-05-05 21:08 | 50.79047 | -1.47019 | 3194 ft | 153 kts | 22° |
| 2026-05-05 21:08 | 50.80002 | -1.46354 | 2938 ft | 148 kts | 28° |
| 2026-05-05 21:08 | 50.80859 | -1.45472 | 2787 ft | 146 kts | 35° |
| 2026-05-05 21:09 | 50.81685 | -1.44571 | 2646 ft | 145 kts | 33° |
| 2026-05-05 21:09 | 50.82504 | -1.43728 | 2461 ft | 138 kts | 32° |
| 2026-05-05 21:09 | 50.83299 | -1.42915 | 2305 ft | 134 kts | 33° |
| 2026-05-05 21:09 | 50.84079 | -1.42114 | 2171 ft | 133 kts | 31° |
| 2026-05-05 21:10 | 50.84882 | -1.41456 | 2037 ft | 127 kts | 25° |
| 2026-05-05 21:10 | 50.85689 | -1.40940 | 1896 ft | 124 kts | 21° |
| 2026-05-05 21:10 | 50.86506 | -1.40463 | 1703 ft | 128 kts | 21° |
| 2026-05-05 21:10 | 50.87356 | -1.39989 | 1482 ft | 128 kts | 21° |
| 2026-05-05 21:11 | 50.88195 | -1.39526 | 1279 ft | 127 kts | 20° |
| 2026-05-05 21:11 | 50.89032 | -1.39049 | 1139 ft | 128 kts | 20° |
| 2026-05-05 21:11 | 50.89868 | -1.38568 | 1018 ft | 128 kts | 20° |
| 2026-05-05 21:11 | 50.90704 | -1.38073 | 891 ft | 128 kts | 20° |
| 2026-05-05 21:12 | 50.91256 | -1.37748 | 770 ft | 128 kts | 19° |
| 2026-05-05 21:12 | 50.92095 | -1.37300 | 577 ft | 126 kts | 18° |
| 2026-05-05 21:12 | 50.92909 | -1.36862 | 406 ft | 122 kts | 18° |
| 2026-05-05 21:12 | 50.93703 | -1.36410 | 247 ft | 120 kts | 18° |
| 2026-05-05 21:13 | 50.94482 | -1.35978 | 41 ft | 112 kts | 17° |
| 2026-05-05 21:13 | 50.95082 | -1.35652 | 46 ft | 46 kts | 19° |
| 2026-05-05 21:13 | 50.95223 | -1.35572 | 47 ft | 12 kts | 19° |
| 2026-05-05 21:13 | 50.95287 | -1.35550 | 47 ft | 8 kts | 6° |
| 2026-05-05 21:14 | 50.95295 | -1.35534 | 44 ft | 1 kts | 131° |
| 2026-05-05 21:14 | 50.95276 | -1.35544 | 47 ft | 7 kts | 195° |
| 2026-05-05 21:14 | 50.95222 | -1.35568 | 47 ft | 8 kts | 196° |
| 2026-05-05 21:14 | 50.95165 | -1.35596 | 45 ft | 9 kts | 197° |
| 2026-05-05 21:15 | 50.95098 | -1.35633 | 45 ft | 12 kts | 200° |
| 2026-05-05 21:15 | 50.95029 | -1.35689 | 44 ft | 11 kts | 230° |
| 2026-05-05 21:15 | 50.95032 | -1.35788 | 46 ft | 8 kts | 289° |
| 2026-05-05 21:15 | 50.95052 | -1.35871 | 48 ft | 8 kts | 301° |
| 2026-05-05 21:16 | 50.95095 | -1.35937 | 49 ft | 9 kts | 301° |
| 2026-05-05 21:16 | 50.95106 | -1.35979 | 49 ft | 0 kts | 292° |